createdAt,value
2023-03-19T00:02:30.858Z,23.40
2023-03-19T00:05:58.576Z,23.70
2023-03-19T00:09:28.521Z,25.00
2023-03-19T00:12:56.087Z,24.40
2023-03-19T00:16:25.056Z,24.90
2023-03-19T00:19:53.853Z,24.60
2023-03-19T00:23:24.399Z,25.80
2023-03-19T00:26:53.582Z,24.90
2023-03-19T00:30:21.232Z,24.00
2023-03-19T00:33:53.355Z,25.90
2023-03-19T00:37:23.001Z,25.00
2023-03-19T00:40:50.122Z,26.20
2023-03-19T00:44:18.096Z,25.70
2023-03-19T00:47:45.604Z,25.90
2023-03-19T00:51:14.038Z,24.80
2023-03-19T00:54:41.857Z,26.20
2023-03-19T00:58:10.446Z,24.20
2023-03-19T01:01:38.159Z,24.00
2023-03-19T01:05:04.741Z,23.70
2023-03-19T01:08:31.896Z,23.50
2023-03-19T01:11:58.948Z,22.90
2023-03-19T01:15:26.234Z,23.80
2023-03-19T01:18:53.791Z,24.60
2023-03-19T01:22:22.257Z,24.10
2023-03-19T01:25:54.445Z,23.50
2023-03-19T01:29:21.995Z,24.50
2023-03-19T01:32:52.367Z,24.00
2023-03-19T01:36:38.533Z,23.80
2023-03-19T01:40:07.731Z,23.90
2023-03-19T01:43:35.074Z,22.90
2023-03-19T01:47:38.526Z,23.70
2023-03-19T01:51:14.011Z,23.60
2023-03-19T02:00:17.282Z,23.50
2023-03-19T02:03:45.639Z,24.40
2023-03-19T02:07:18.797Z,23.10
2023-03-19T02:10:48.501Z,23.40
2023-03-19T02:14:15.571Z,23.80
2023-03-19T02:17:43.515Z,24.00
2023-03-19T02:21:15.346Z,24.80
2023-03-19T02:24:53.944Z,25.20
2023-03-19T02:28:23.829Z,24.90
2023-03-19T02:31:51.913Z,24.70
2023-03-19T02:35:19.351Z,23.70
2023-03-19T02:38:48.109Z,27.00
2023-03-19T02:42:18.948Z,24.90
2023-03-19T02:45:46.581Z,24.80
2023-03-19T02:49:14.434Z,25.00
2023-03-19T02:52:42.799Z,25.40
2023-03-19T02:56:13.031Z,25.70
2023-03-19T02:59:41.402Z,25.80
2023-03-19T03:03:09.106Z,25.90
2023-03-19T03:06:36.761Z,26.40
2023-03-19T03:10:06.317Z,26.00
2023-03-19T03:13:33.891Z,26.30
2023-03-19T03:17:02.148Z,26.10
2023-03-19T03:20:29.442Z,25.40
2023-03-19T03:23:57.224Z,25.50
2023-03-19T03:27:25.800Z,23.70
2023-03-19T03:30:53.314Z,23.20
2023-03-19T03:34:20.269Z,24.60
2023-03-19T03:37:46.978Z,23.60
2023-03-19T03:41:18.733Z,22.00
2023-03-19T03:44:45.655Z,22.50
2023-03-19T03:48:15.192Z,22.70
2023-03-19T03:51:42.761Z,22.80
2023-03-19T03:55:11.115Z,23.70
2023-03-19T03:58:38.058Z,24.50
2023-03-19T04:02:05.174Z,23.50
2023-03-19T04:05:32.569Z,24.30
2023-03-19T04:08:59.124Z,24.10
2023-03-19T04:12:26.524Z,24.50
2023-03-19T04:15:54.906Z,25.60
2023-03-19T04:19:22.161Z,24.40
2023-03-19T04:22:49.085Z,25.90
2023-03-19T04:26:16.388Z,24.70
2023-03-19T04:29:43.375Z,25.30
2023-03-19T04:33:11.169Z,26.20
2023-03-19T04:36:38.790Z,24.90
2023-03-19T04:40:06.814Z,25.20
2023-03-19T04:43:34.940Z,24.90
2023-03-19T04:47:03.208Z,24.60
2023-03-19T04:50:35.299Z,25.20
2023-03-19T04:54:02.778Z,24.80
2023-03-19T04:57:29.764Z,25.60
2023-03-19T05:00:56.755Z,26.30
2023-03-19T05:04:32.107Z,24.30
2023-03-19T05:08:03.804Z,25.60
2023-03-19T05:11:30.803Z,25.80
2023-03-19T05:15:06.750Z,25.80
2023-03-19T05:18:38.376Z,25.50
2023-03-19T05:22:06.576Z,25.50
2023-03-19T05:25:35.492Z,24.80
2023-03-19T05:29:05.214Z,25.00
2023-03-19T05:32:40.983Z,24.90
2023-03-19T05:36:12.631Z,25.80
2023-03-19T05:39:47.367Z,25.30
2023-03-19T05:43:14.985Z,27.70
2023-03-19T05:46:43.783Z,26.20
2023-03-19T05:50:13.142Z,28.00
2023-03-19T05:53:49.836Z,29.40
2023-03-19T05:57:42.587Z,28.90
2023-03-19T06:01:13.878Z,30.20
2023-03-19T06:04:40.439Z,27.80
2023-03-19T06:08:08.352Z,29.40
2023-03-19T06:11:53.378Z,27.70
2023-03-19T06:15:39.066Z,27.60
2023-03-19T06:19:23.639Z,27.40
2023-03-19T06:22:50.227Z,28.50
2023-03-19T06:26:17.547Z,33.10
2023-03-19T06:29:51.658Z,34.60
2023-03-19T06:33:26.050Z,37.90
2023-03-19T06:36:54.083Z,40.60
2023-03-19T06:40:20.869Z,40.20
2023-03-19T06:43:48.125Z,40.00
2023-03-19T06:47:15.640Z,37.20
2023-03-19T06:50:42.950Z,35.40
2023-03-19T06:54:10.015Z,36.20
2023-03-19T06:57:36.969Z,36.60
2023-03-19T07:01:04.033Z,34.20
2023-03-19T07:04:31.869Z,36.80
2023-03-19T07:07:58.747Z,37.90
2023-03-19T07:11:25.390Z,35.60
2023-03-19T07:14:52.198Z,36.00
2023-03-19T07:18:18.842Z,36.20
2023-03-19T07:21:45.719Z,34.90
2023-03-19T07:25:13.167Z,35.20
2023-03-19T07:28:40.482Z,35.20
2023-03-19T07:32:13.065Z,34.50
2023-03-19T07:35:39.765Z,34.50
2023-03-19T07:39:06.656Z,34.60
2023-03-19T07:42:34.159Z,35.20
2023-03-19T07:46:01.717Z,35.40
2023-03-19T07:49:28.625Z,35.00
2023-03-19T07:52:55.863Z,34.60
2023-03-19T07:56:23.180Z,35.30
2023-03-19T07:59:50.141Z,33.90
2023-03-19T08:03:17.418Z,36.60
2023-03-19T08:06:44.150Z,34.60
2023-03-19T08:10:18.672Z,35.60
2023-03-19T08:13:45.567Z,35.00
2023-03-19T08:17:12.850Z,36.40
2023-03-19T08:20:39.770Z,37.10
2023-03-19T08:24:07.125Z,34.40
2023-03-19T08:27:35.906Z,34.50
2023-03-19T08:31:10.148Z,33.80
2023-03-19T08:34:37.611Z,34.60
2023-03-19T08:38:04.004Z,34.00
2023-03-19T08:41:30.598Z,33.90
2023-03-19T08:44:57.136Z,34.30
2023-03-19T08:48:23.784Z,32.70
2023-03-19T08:51:51.037Z,32.60
2023-03-19T08:55:18.450Z,33.20
2023-03-19T08:58:45.831Z,32.80
2023-03-19T09:02:13.135Z,30.70
2023-03-19T09:05:40.275Z,31.20
2023-03-19T09:09:07.336Z,31.80
2023-03-19T09:12:34.268Z,30.20
2023-03-19T09:16:01.701Z,29.50
2023-03-19T09:19:28.558Z,30.40
2023-03-19T09:22:55.614Z,30.20
2023-03-19T09:26:22.832Z,29.20
2023-03-19T09:29:49.558Z,31.10
2023-03-19T09:33:17.484Z,30.00
2023-03-19T09:36:44.152Z,30.50
2023-03-19T09:40:24.832Z,31.20
2023-03-19T09:44:14.956Z,31.00
2023-03-19T09:47:42.103Z,28.30
2023-03-19T09:51:17.041Z,30.30
2023-03-19T09:54:49.102Z,29.40
2023-03-19T09:58:19.928Z,31.00
2023-03-19T10:01:54.639Z,31.00
2023-03-19T10:05:32.704Z,30.10
2023-03-19T10:09:25.377Z,28.40
2023-03-19T10:12:59.565Z,30.00
2023-03-19T10:16:29.052Z,30.00
2023-03-19T10:20:00.216Z,30.60
2023-03-19T10:23:45.907Z,29.40
2023-03-19T10:27:16.274Z,28.80
2023-03-19T10:30:47.356Z,29.20
2023-03-19T10:34:32.920Z,28.40
2023-03-19T10:38:10.020Z,29.50
2023-03-19T10:41:51.457Z,27.70
2023-03-19T10:45:26.573Z,25.50
2023-03-19T10:48:53.624Z,25.40
2023-03-19T10:52:31.409Z,26.10
2023-03-19T10:56:02.227Z,26.10
2023-03-19T10:59:35.112Z,22.60
2023-03-19T11:03:05.047Z,23.10
2023-03-19T11:06:36.514Z,23.60
2023-03-19T11:10:02.972Z,23.20
2023-03-19T11:13:30.242Z,23.10
2023-03-19T11:17:05.846Z,22.10
2023-03-19T11:20:36.605Z,22.10
2023-03-19T11:24:14.236Z,20.90
2023-03-19T11:27:42.463Z,21.40
2023-03-19T11:31:19.731Z,20.50
2023-03-19T11:34:55.076Z,22.90
2023-03-19T11:38:33.039Z,22.50
2023-03-19T11:42:36.157Z,22.30
2023-03-19T11:46:13.110Z,20.80
2023-03-19T11:49:51.029Z,21.70
2023-03-19T11:53:26.446Z,21.70
2023-03-19T11:57:01.265Z,21.40
2023-03-19T12:00:38.872Z,20.40
2023-03-19T12:04:29.527Z,17.90
2023-03-19T12:08:12.852Z,17.30
2023-03-19T12:15:25.724Z,16.40
2023-03-19T12:19:23.424Z,16.30
2023-03-19T12:23:06.119Z,17.00
2023-03-19T12:26:41.173Z,15.70
2023-03-19T12:30:21.053Z,14.60
2023-03-19T12:33:58.451Z,15.30
2023-03-19T12:37:31.861Z,16.30
2023-03-19T12:41:04.976Z,16.50
2023-03-19T12:44:35.885Z,15.50
2023-03-19T12:48:08.739Z,15.20
2023-03-19T12:51:42.210Z,16.40
2023-03-19T12:58:51.204Z,14.30
2023-03-19T13:02:26.949Z,14.40
2023-03-19T13:06:00.802Z,16.80
2023-03-19T13:12:58.157Z,14.00
2023-03-19T13:16:36.525Z,12.50
2023-03-19T13:20:08.196Z,12.90
2023-03-19T13:23:38.575Z,12.90
2023-03-19T13:27:07.421Z,13.40
2023-03-19T13:30:35.249Z,13.90
2023-03-19T13:34:07.898Z,15.20
2023-03-19T13:37:34.988Z,15.70
2023-03-19T13:41:02.499Z,16.10
2023-03-19T13:44:37.902Z,16.60
2023-03-19T13:48:38.494Z,16.10
2023-03-19T13:52:35.292Z,17.90
2023-03-19T13:56:08.407Z,18.00
2023-03-19T13:59:44.474Z,15.70
2023-03-19T14:03:23.969Z,15.20
2023-03-19T14:06:54.151Z,15.40
2023-03-19T14:10:26.123Z,13.50
2023-03-19T14:13:55.223Z,14.30
2023-03-19T14:17:27.356Z,13.40
2023-03-19T14:21:07.177Z,14.60
2023-03-19T14:24:58.433Z,15.70
2023-03-19T14:28:31.123Z,14.30
2023-03-19T14:32:01.773Z,17.50
2023-03-19T14:35:29.721Z,16.50
2023-03-19T14:39:00.466Z,15.00
2023-03-19T14:42:35.667Z,15.60
2023-03-19T14:46:05.843Z,17.40
2023-03-19T14:49:58.842Z,18.60
2023-03-19T14:53:41.947Z,19.30
2023-03-19T14:57:20.229Z,18.50
2023-03-19T15:00:52.668Z,20.90
2023-03-19T15:04:23.012Z,23.30
2023-03-19T15:07:52.787Z,25.30
2023-03-19T15:11:55.052Z,35.00
2023-03-19T15:15:32.421Z,121.80
2023-03-19T15:18:59.788Z,130.60
2023-03-19T15:22:31.773Z,110.30
2023-03-19T15:26:02.102Z,69.80
2023-03-19T15:29:37.997Z,73.90
2023-03-19T15:33:13.786Z,24.70
2023-03-19T15:36:44.746Z,26.60
2023-03-19T15:40:19.215Z,23.20
2023-03-19T15:43:47.082Z,26.40
2023-03-19T15:47:21.593Z,25.30
2023-03-19T15:50:51.961Z,24.40
2023-03-19T15:54:19.640Z,22.40
2023-03-19T15:57:47.264Z,28.10
2023-03-19T16:01:16.696Z,25.40
2023-03-19T16:05:18.240Z,30.60
2023-03-19T16:08:35.463Z,29.60
2023-03-19T16:12:03.942Z,28.90
2023-03-19T16:15:41.771Z,27.10
2023-03-19T16:19:28.412Z,28.30
2023-03-19T16:22:58.820Z,25.20
2023-03-19T16:26:31.296Z,25.60
2023-03-19T16:30:01.885Z,25.40
2023-03-19T16:33:29.705Z,26.40
2023-03-19T16:36:59.199Z,26.20
2023-03-19T16:40:46.998Z,25.40
2023-03-19T16:44:19.359Z,45.90
2023-03-19T16:47:47.191Z,42.00
2023-03-19T16:51:18.655Z,100.60
2023-03-19T16:54:48.409Z,115.70
2023-03-19T16:58:23.924Z,115.70
2023-03-19T17:01:53.010Z,117.90
2023-03-19T17:05:20.141Z,121.30
2023-03-19T17:08:47.606Z,111.00
2023-03-19T17:12:18.037Z,72.50
2023-03-19T17:15:45.393Z,64.00
2023-03-19T17:19:20.024Z,52.60
2023-03-19T17:22:46.595Z,45.90
2023-03-19T17:26:23.854Z,48.60
2023-03-19T17:29:51.579Z,45.00
2023-03-19T17:33:25.919Z,44.70
2023-03-19T17:36:56.328Z,45.10
2023-03-19T17:40:28.644Z,43.80
2023-03-19T17:43:56.137Z,44.10
2023-03-19T17:47:24.694Z,40.90
2023-03-19T17:50:53.188Z,40.90
2023-03-19T17:54:20.250Z,40.40
2023-03-19T17:57:49.393Z,40.90
2023-03-19T18:01:21.840Z,40.00
2023-03-19T18:04:52.392Z,40.20
2023-03-19T18:08:24.181Z,39.90
2023-03-19T18:11:51.544Z,44.60
2023-03-19T18:15:19.965Z,48.10
2023-03-19T18:18:47.960Z,44.30
2023-03-19T18:22:21.783Z,42.60
2023-03-19T18:25:51.660Z,43.70
2023-03-19T18:29:24.172Z,53.20
2023-03-19T18:32:56.418Z,51.20
2023-03-19T18:36:27.992Z,48.20
2023-03-19T18:39:54.836Z,51.50
2023-03-19T18:43:22.318Z,52.40
2023-03-19T18:46:49.500Z,49.50
2023-03-19T18:50:25.149Z,48.90
2023-03-19T18:53:55.016Z,48.40
2023-03-19T18:57:27.030Z,49.30
2023-03-19T19:00:57.515Z,48.70
2023-03-19T19:04:27.846Z,50.20
2023-03-19T19:07:59.747Z,55.30
2023-03-19T19:11:27.630Z,54.40
2023-03-19T19:14:54.936Z,52.90
2023-03-19T19:18:32.003Z,59.30
2023-03-19T19:21:59.092Z,60.60
2023-03-19T19:25:28.044Z,61.80
2023-03-19T19:28:57.625Z,61.90
2023-03-19T19:32:26.688Z,58.50
2023-03-19T19:35:56.702Z,55.90
2023-03-19T19:39:24.685Z,55.70
2023-03-19T19:42:54.780Z,57.00
2023-03-19T19:46:23.179Z,54.90
2023-03-19T19:49:50.767Z,55.90
2023-03-19T19:53:23.809Z,53.40
2023-03-19T19:56:50.444Z,49.90
2023-03-19T20:00:24.271Z,48.30
2023-03-19T20:03:53.119Z,48.20
2023-03-19T20:07:20.010Z,48.80
2023-03-19T20:10:48.252Z,48.00
2023-03-19T20:14:16.337Z,48.80
2023-03-19T20:17:43.561Z,48.70
2023-03-19T20:21:12.832Z,48.20
2023-03-19T20:24:39.957Z,46.30
2023-03-19T20:28:11.486Z,46.00
2023-03-19T20:31:52.442Z,46.90
2023-03-19T20:35:25.259Z,47.30
2023-03-19T20:38:55.475Z,46.50
2023-03-19T20:42:23.944Z,47.70
2023-03-19T20:45:51.506Z,47.50
2023-03-19T20:49:20.918Z,46.90
2023-03-19T20:52:48.134Z,49.40
2023-03-19T20:56:18.863Z,53.10
2023-03-19T20:59:51.430Z,55.10
2023-03-19T21:03:27.388Z,52.20
2023-03-19T21:06:56.405Z,51.00
2023-03-19T21:10:33.974Z,49.30
2023-03-19T21:14:04.017Z,51.30
2023-03-19T21:17:38.816Z,50.80
2023-03-19T21:21:11.212Z,51.90
2023-03-19T21:24:40.850Z,52.60
2023-03-19T21:28:21.164Z,52.30
2023-03-19T21:31:53.038Z,51.30
2023-03-19T21:35:30.836Z,53.30
2023-03-19T21:38:58.543Z,53.80
2023-03-19T21:42:26.407Z,53.70
2023-03-19T21:45:55.203Z,55.90
2023-03-19T21:49:23.729Z,53.00
2023-03-19T21:52:59.764Z,54.10
2023-03-19T21:56:33.698Z,52.40
2023-03-19T22:00:02.263Z,51.40
2023-03-19T22:03:32.719Z,51.10
2023-03-19T22:07:01.002Z,49.40
2023-03-19T22:10:31.489Z,50.00
2023-03-19T22:14:06.382Z,49.40
2023-03-19T22:17:34.615Z,47.50
2023-03-19T22:21:01.913Z,45.10
2023-03-19T22:24:31.302Z,44.90
2023-03-19T22:28:01.210Z,43.60
2023-03-19T22:31:31.290Z,46.80
2023-03-19T22:34:58.750Z,44.90
2023-03-19T22:38:26.479Z,44.80
2023-03-19T22:41:53.666Z,46.40
2023-03-19T22:45:28.386Z,44.80
2023-03-19T22:48:56.965Z,44.20
2023-03-19T22:52:24.325Z,43.10
2023-03-19T22:55:52.736Z,43.50
2023-03-19T22:59:20.819Z,42.30
2023-03-19T23:02:55.212Z,43.50
2023-03-19T23:06:30.580Z,45.50
2023-03-19T23:10:01.034Z,45.80
2023-03-19T23:13:30.404Z,45.50
2023-03-19T23:17:02.390Z,47.50
2023-03-19T23:20:34.099Z,47.70
2023-03-19T23:24:01.553Z,47.00
2023-03-19T23:27:30.070Z,49.40
2023-03-19T23:30:56.635Z,50.60
2023-03-19T23:34:23.738Z,48.10
2023-03-19T23:37:55.212Z,49.40
2023-03-19T23:41:27.408Z,48.60
2023-03-19T23:44:57.695Z,50.80
2023-03-19T23:48:34.212Z,48.70
2023-03-19T23:52:02.205Z,49.50
2023-03-19T23:55:30.182Z,50.40
2023-03-19T23:58:59.262Z,50.20
